sensor_id;sensor_type;location;lat;lon;timestamp;P1;durP1;ratioP1;P2;durP2;ratioP2
26082;SDS011;13848;49.018;12.078;2023-11-22T00:01:20;5.18;;;2.33;;
26082;SDS011;13848;49.018;12.078;2023-11-22T00:03:46;3.50;;;2.35;;
26082;SDS011;13848;49.018;12.078;2023-11-22T00:06:12;3.17;;;2.08;;
26082;SDS011;13848;49.018;12.078;2023-11-22T00:08:38;3.65;;;2.28;;
26082;SDS011;13848;49.018;12.078;2023-11-22T00:11:05;3.78;;;2.70;;
26082;SDS011;13848;49.018;12.078;2023-11-22T00:13:31;3.70;;;2.92;;
26082;SDS011;13848;49.018;12.078;2023-11-22T00:15:57;3.75;;;2.40;;
26082;SDS011;13848;49.018;12.078;2023-11-22T00:18:23;3.70;;;2.55;;
26082;SDS011;13848;49.018;12.078;2023-11-22T00:20:49;3.88;;;2.40;;
26082;SDS011;13848;49.018;12.078;2023-11-22T00:23:15;3.40;;;2.60;;
26082;SDS011;13848;49.018;12.078;2023-11-22T00:25:41;3.80;;;2.50;;
26082;SDS011;13848;49.018;12.078;2023-11-22T00:28:08;6.03;;;2.72;;
26082;SDS011;13848;49.018;12.078;2023-11-22T00:30:34;3.88;;;2.88;;
26082;SDS011;13848;49.018;12.078;2023-11-22T00:33:00;3.50;;;2.40;;
26082;SDS011;13848;49.018;12.078;2023-11-22T00:35:26;4.15;;;2.78;;
26082;SDS011;13848;49.018;12.078;2023-11-22T00:37:52;3.42;;;2.60;;
26082;SDS011;13848;49.018;12.078;2023-11-22T00:40:18;3.35;;;2.50;;
26082;SDS011;13848;49.018;12.078;2023-11-22T00:42:44;2.70;;;2.28;;
26082;SDS011;13848;49.018;12.078;2023-11-22T00:45:11;3.28;;;2.28;;
26082;SDS011;13848;49.018;12.078;2023-11-22T00:47:37;2.97;;;2.20;;
26082;SDS011;13848;49.018;12.078;2023-11-22T00:50:03;3.90;;;2.25;;
26082;SDS011;13848;49.018;12.078;2023-11-22T00:52:29;3.50;;;2.40;;
26082;SDS011;13848;49.018;12.078;2023-11-22T00:54:55;3.17;;;2.45;;
26082;SDS011;13848;49.018;12.078;2023-11-22T00:57:21;4.22;;;2.40;;
26082;SDS011;13848;49.018;12.078;2023-11-22T00:59:47;3.25;;;2.30;;
26082;SDS011;13848;49.018;12.078;2023-11-22T01:02:15;3.35;;;2.20;;
26082;SDS011;13848;49.018;12.078;2023-11-22T01:04:41;2.83;;;1.95;;
26082;SDS011;13848;49.018;12.078;2023-11-22T01:07:07;3.20;;;2.30;;
26082;SDS011;13848;49.018;12.078;2023-11-22T01:09:32;2.75;;;2.20;;
26082;SDS011;13848;49.018;12.078;2023-11-22T01:11:59;3.03;;;2.08;;
26082;SDS011;13848;49.018;12.078;2023-11-22T01:14:25;2.67;;;1.92;;
26082;SDS011;13848;49.018;12.078;2023-11-22T01:16:51;2.17;;;1.95;;
26082;SDS011;13848;49.018;12.078;2023-11-22T01:19:18;2.42;;;2.03;;
26082;SDS011;13848;49.018;12.078;2023-11-22T01:21:44;4.22;;;2.08;;
26082;SDS011;13848;49.018;12.078;2023-11-22T01:24:10;3.13;;;2.00;;
26082;SDS011;13848;49.018;12.078;2023-11-22T01:26:36;2.63;;;1.92;;
26082;SDS011;13848;49.018;12.078;2023-11-22T01:29:02;4.25;;;2.47;;
26082;SDS011;13848;49.018;12.078;2023-11-22T01:31:28;2.95;;;2.03;;
26082;SDS011;13848;49.018;12.078;2023-11-22T01:33:54;2.30;;;1.60;;
26082;SDS011;13848;49.018;12.078;2023-11-22T01:36:21;3.30;;;1.90;;
26082;SDS011;13848;49.018;12.078;2023-11-22T01:38:47;2.35;;;1.70;;
26082;SDS011;13848;49.018;12.078;2023-11-22T01:41:13;2.65;;;1.90;;
26082;SDS011;13848;49.018;12.078;2023-11-22T01:43:39;2.13;;;1.70;;
26082;SDS011;13848;49.018;12.078;2023-11-22T01:46:06;2.42;;;1.70;;
26082;SDS011;13848;49.018;12.078;2023-11-22T01:48:32;3.67;;;1.70;;
26082;SDS011;13848;49.018;12.078;2023-11-22T01:50:59;2.95;;;1.80;;
26082;SDS011;13848;49.018;12.078;2023-11-22T01:53:26;2.75;;;1.85;;
26082;SDS011;13848;49.018;12.078;2023-11-22T01:55:52;1.77;;;1.55;;
26082;SDS011;13848;49.018;12.078;2023-11-22T01:58:19;2.38;;;1.70;;
26082;SDS011;13848;49.018;12.078;2023-11-22T02:00:45;3.63;;;1.58;;
26082;SDS011;13848;49.018;12.078;2023-11-22T02:03:14;1.73;;;1.50;;
26082;SDS011;13848;49.018;12.078;2023-11-22T02:05:41;2.17;;;1.70;;
26082;SDS011;13848;49.018;12.078;2023-11-22T02:08:08;2.28;;;1.70;;
26082;SDS011;13848;49.018;12.078;2023-11-22T02:10:35;3.05;;;1.60;;
26082;SDS011;13848;49.018;12.078;2023-11-22T02:13:01;2.38;;;1.65;;
26082;SDS011;13848;49.018;12.078;2023-11-22T02:15:27;2.70;;;1.77;;
26082;SDS011;13848;49.018;12.078;2023-11-22T02:17:53;3.20;;;1.88;;
26082;SDS011;13848;49.018;12.078;2023-11-22T02:20:19;2.20;;;1.63;;
26082;SDS011;13848;49.018;12.078;2023-11-22T02:22:46;2.72;;;1.95;;
26082;SDS011;13848;49.018;12.078;2023-11-22T02:25:14;6.30;;;1.83;;
26082;SDS011;13848;49.018;12.078;2023-11-22T02:27:40;2.70;;;2.00;;
26082;SDS011;13848;49.018;12.078;2023-11-22T02:30:06;2.63;;;1.88;;
26082;SDS011;13848;49.018;12.078;2023-11-22T02:32:33;2.10;;;1.60;;
26082;SDS011;13848;49.018;12.078;2023-11-22T02:34:59;2.28;;;1.80;;
26082;SDS011;13848;49.018;12.078;2023-11-22T02:37:25;2.30;;;1.90;;
26082;SDS011;13848;49.018;12.078;2023-11-22T02:39:54;2.17;;;1.70;;
26082;SDS011;13848;49.018;12.078;2023-11-22T02:42:27;3.75;;;1.60;;
26082;SDS011;13848;49.018;12.078;2023-11-22T02:44:53;2.70;;;1.80;;
26082;SDS011;13848;49.018;12.078;2023-11-22T02:47:19;2.00;;;1.67;;
26082;SDS011;13848;49.018;12.078;2023-11-22T02:49:44;2.45;;;1.60;;
26082;SDS011;13848;49.018;12.078;2023-11-22T02:52:10;2.10;;;1.60;;
26082;SDS011;13848;49.018;12.078;2023-11-22T02:54:36;2.08;;;1.65;;
26082;SDS011;13848;49.018;12.078;2023-11-22T02:57:03;1.98;;;1.50;;
26082;SDS011;13848;49.018;12.078;2023-11-22T02:59:30;2.20;;;1.67;;
26082;SDS011;13848;49.018;12.078;2023-11-22T03:01:56;2.80;;;1.70;;
26082;SDS011;13848;49.018;12.078;2023-11-22T03:04:22;2.20;;;1.52;;
26082;SDS011;13848;49.018;12.078;2023-11-22T03:06:48;2.22;;;1.60;;
26082;SDS011;13848;49.018;12.078;2023-11-22T03:09:14;1.73;;;1.60;;
26082;SDS011;13848;49.018;12.078;2023-11-22T03:11:40;3.08;;;1.75;;
26082;SDS011;13848;49.018;12.078;2023-11-22T03:14:06;2.17;;;1.77;;
26082;SDS011;13848;49.018;12.078;2023-11-22T03:16:33;5.03;;;1.98;;
26082;SDS011;13848;49.018;12.078;2023-11-22T03:18:59;2.10;;;1.63;;
26082;SDS011;13848;49.018;12.078;2023-11-22T03:21:25;2.47;;;1.63;;
26082;SDS011;13848;49.018;12.078;2023-11-22T03:23:51;2.30;;;1.77;;
26082;SDS011;13848;49.018;12.078;2023-11-22T03:26:17;2.28;;;1.77;;
26082;SDS011;13848;49.018;12.078;2023-11-22T03:28:43;2.55;;;1.83;;
26082;SDS011;13848;49.018;12.078;2023-11-22T03:31:08;2.92;;;1.88;;
26082;SDS011;13848;49.018;12.078;2023-11-22T03:33:36;2.55;;;1.98;;
26082;SDS011;13848;49.018;12.078;2023-11-22T03:36:03;3.30;;;2.10;;
26082;SDS011;13848;49.018;12.078;2023-11-22T03:38:29;2.17;;;1.80;;
26082;SDS011;13848;49.018;12.078;2023-11-22T03:40:55;2.95;;;2.17;;
26082;SDS011;13848;49.018;12.078;2023-11-22T03:43:21;2.83;;;2.00;;
26082;SDS011;13848;49.018;12.078;2023-11-22T03:45:47;3.13;;;2.20;;
26082;SDS011;13848;49.018;12.078;2023-11-22T03:48:13;3.10;;;2.15;;
26082;SDS011;13848;49.018;12.078;2023-11-22T03:50:40;3.08;;;2.22;;
26082;SDS011;13848;49.018;12.078;2023-11-22T03:53:06;3.13;;;2.15;;
26082;SDS011;13848;49.018;12.078;2023-11-22T03:55:32;2.50;;;1.90;;
26082;SDS011;13848;49.018;12.078;2023-11-22T03:57:58;2.65;;;2.00;;
26082;SDS011;13848;49.018;12.078;2023-11-22T04:00:24;4.07;;;2.30;;
26082;SDS011;13848;49.018;12.078;2023-11-22T04:02:50;3.80;;;2.60;;
26082;SDS011;13848;49.018;12.078;2023-11-22T04:05:16;2.83;;;2.35;;
26082;SDS011;13848;49.018;12.078;2023-11-22T04:07:43;3.78;;;2.63;;
26082;SDS011;13848;49.018;12.078;2023-11-22T04:10:09;4.32;;;2.10;;
26082;SDS011;13848;49.018;12.078;2023-11-22T04:12:35;3.17;;;2.20;;
26082;SDS011;13848;49.018;12.078;2023-11-22T04:15:01;3.63;;;2.45;;
26082;SDS011;13848;49.018;12.078;2023-11-22T04:17:27;3.10;;;2.30;;
26082;SDS011;13848;49.018;12.078;2023-11-22T04:19:53;3.75;;;2.30;;
26082;SDS011;13848;49.018;12.078;2023-11-22T04:22:19;3.20;;;2.25;;
26082;SDS011;13848;49.018;12.078;2023-11-22T04:24:46;3.72;;;2.47;;
26082;SDS011;13848;49.018;12.078;2023-11-22T04:27:12;3.22;;;2.40;;
26082;SDS011;13848;49.018;12.078;2023-11-22T04:29:38;4.00;;;2.53;;
26082;SDS011;13848;49.018;12.078;2023-11-22T04:32:04;3.50;;;2.35;;
26082;SDS011;13848;49.018;12.078;2023-11-22T04:34:31;3.47;;;2.30;;
26082;SDS011;13848;49.018;12.078;2023-11-22T04:36:57;4.30;;;2.50;;
26082;SDS011;13848;49.018;12.078;2023-11-22T04:39:22;4.38;;;2.70;;
26082;SDS011;13848;49.018;12.078;2023-11-22T04:41:50;2.97;;;2.17;;
26082;SDS011;13848;49.018;12.078;2023-11-22T04:44:16;4.03;;;2.30;;
26082;SDS011;13848;49.018;12.078;2023-11-22T04:46:42;3.47;;;2.25;;
26082;SDS011;13848;49.018;12.078;2023-11-22T04:49:07;2.60;;;2.00;;
26082;SDS011;13848;49.018;12.078;2023-11-22T04:51:33;2.85;;;2.05;;
26082;SDS011;13848;49.018;12.078;2023-11-22T04:53:59;3.25;;;2.20;;
26082;SDS011;13848;49.018;12.078;2023-11-22T04:56:25;3.08;;;2.03;;
26082;SDS011;13848;49.018;12.078;2023-11-22T04:58:53;2.20;;;1.88;;
26082;SDS011;13848;49.018;12.078;2023-11-22T05:01:19;3.40;;;1.92;;
26082;SDS011;13848;49.018;12.078;2023-11-22T05:03:44;2.53;;;1.95;;
26082;SDS011;13848;49.018;12.078;2023-11-22T05:06:10;2.63;;;2.10;;
26082;SDS011;13848;49.018;12.078;2023-11-22T05:08:36;2.33;;;2.00;;
26082;SDS011;13848;49.018;12.078;2023-11-22T05:11:03;2.92;;;1.98;;
26082;SDS011;13848;49.018;12.078;2023-11-22T05:13:29;2.90;;;2.03;;
26082;SDS011;13848;49.018;12.078;2023-11-22T05:15:56;2.97;;;2.00;;
26082;SDS011;13848;49.018;12.078;2023-11-22T05:18:22;2.72;;;2.13;;
26082;SDS011;13848;49.018;12.078;2023-11-22T05:20:48;3.47;;;2.30;;
26082;SDS011;13848;49.018;12.078;2023-11-22T05:23:14;2.65;;;2.00;;
26082;SDS011;13848;49.018;12.078;2023-11-22T05:25:40;2.08;;;1.83;;
26082;SDS011;13848;49.018;12.078;2023-11-22T05:28:06;2.42;;;1.85;;
26082;SDS011;13848;49.018;12.078;2023-11-22T05:30:32;3.28;;;2.28;;
26082;SDS011;13848;49.018;12.078;2023-11-22T05:32:59;2.70;;;2.00;;
26082;SDS011;13848;49.018;12.078;2023-11-22T05:35:25;2.40;;;1.95;;
26082;SDS011;13848;49.018;12.078;2023-11-22T05:37:51;2.80;;;2.20;;
26082;SDS011;13848;49.018;12.078;2023-11-22T05:40:17;3.53;;;2.10;;
26082;SDS011;13848;49.018;12.078;2023-11-22T05:42:43;3.03;;;2.08;;
26082;SDS011;13848;49.018;12.078;2023-11-22T05:45:09;3.00;;;2.25;;
26082;SDS011;13848;49.018;12.078;2023-11-22T05:47:35;4.07;;;2.08;;
26082;SDS011;13848;49.018;12.078;2023-11-22T05:50:03;2.90;;;2.08;;
26082;SDS011;13848;49.018;12.078;2023-11-22T05:52:29;2.58;;;2.03;;
26082;SDS011;13848;49.018;12.078;2023-11-22T05:54:55;2.58;;;1.98;;
26082;SDS011;13848;49.018;12.078;2023-11-22T05:57:21;2.80;;;2.10;;
26082;SDS011;13848;49.018;12.078;2023-11-22T05:59:47;2.55;;;2.08;;
26082;SDS011;13848;49.018;12.078;2023-11-22T06:02:13;3.22;;;2.25;;
26082;SDS011;13848;49.018;12.078;2023-11-22T06:04:39;3.22;;;1.92;;
26082;SDS011;13848;49.018;12.078;2023-11-22T06:07:06;2.53;;;2.05;;
26082;SDS011;13848;49.018;12.078;2023-11-22T06:09:32;2.60;;;1.98;;
26082;SDS011;13848;49.018;12.078;2023-11-22T06:11:58;3.58;;;2.50;;
26082;SDS011;13848;49.018;12.078;2023-11-22T06:14:24;2.85;;;2.20;;
26082;SDS011;13848;49.018;12.078;2023-11-22T06:16:50;2.50;;;2.03;;
26082;SDS011;13848;49.018;12.078;2023-11-22T06:19:16;3.38;;;2.40;;
26082;SDS011;13848;49.018;12.078;2023-11-22T06:21:42;3.08;;;2.30;;
26082;SDS011;13848;49.018;12.078;2023-11-22T06:24:09;3.40;;;2.28;;
26082;SDS011;13848;49.018;12.078;2023-11-22T06:26:35;3.30;;;2.10;;
26082;SDS011;13848;49.018;12.078;2023-11-22T06:29:01;3.50;;;2.50;;
26082;SDS011;13848;49.018;12.078;2023-11-22T06:31:27;3.05;;;2.45;;
26082;SDS011;13848;49.018;12.078;2023-11-22T06:33:53;3.38;;;2.40;;
26082;SDS011;13848;49.018;12.078;2023-11-22T06:36:19;3.05;;;2.55;;
26082;SDS011;13848;49.018;12.078;2023-11-22T06:38:45;4.22;;;2.70;;
26082;SDS011;13848;49.018;12.078;2023-11-22T06:41:12;3.47;;;2.40;;
26082;SDS011;13848;49.018;12.078;2023-11-22T06:43:38;2.92;;;2.22;;
26082;SDS011;13848;49.018;12.078;2023-11-22T06:46:04;3.50;;;2.53;;
26082;SDS011;13848;49.018;12.078;2023-11-22T06:48:30;3.80;;;2.40;;
26082;SDS011;13848;49.018;12.078;2023-11-22T06:50:55;4.00;;;2.42;;
26082;SDS011;13848;49.018;12.078;2023-11-22T06:53:21;3.97;;;2.55;;
26082;SDS011;13848;49.018;12.078;2023-11-22T06:55:47;3.40;;;2.35;;
26082;SDS011;13848;49.018;12.078;2023-11-22T06:58:15;3.55;;;2.72;;
26082;SDS011;13848;49.018;12.078;2023-11-22T07:00:41;3.83;;;2.40;;
26082;SDS011;13848;49.018;12.078;2023-11-22T07:03:07;3.30;;;2.38;;
26082;SDS011;13848;49.018;12.078;2023-11-22T07:05:32;3.47;;;2.50;;
26082;SDS011;13848;49.018;12.078;2023-11-22T07:07:58;4.07;;;2.60;;
26082;SDS011;13848;49.018;12.078;2023-11-22T07:10:24;4.45;;;2.90;;
26082;SDS011;13848;49.018;12.078;2023-11-22T07:12:50;4.45;;;2.50;;
26082;SDS011;13848;49.018;12.078;2023-11-22T07:15:17;3.88;;;2.40;;
26082;SDS011;13848;49.018;12.078;2023-11-22T07:17:43;3.95;;;2.97;;
26082;SDS011;13848;49.018;12.078;2023-11-22T07:20:10;3.72;;;2.58;;
26082;SDS011;13848;49.018;12.078;2023-11-22T07:22:36;5.90;;;2.78;;
26082;SDS011;13848;49.018;12.078;2023-11-22T07:25:02;4.40;;;3.28;;
26082;SDS011;13848;49.018;12.078;2023-11-22T07:27:28;4.38;;;2.97;;
26082;SDS011;13848;49.018;12.078;2023-11-22T07:29:54;4.55;;;2.83;;
26082;SDS011;13848;49.018;12.078;2023-11-22T07:32:21;4.00;;;2.85;;
26082;SDS011;13848;49.018;12.078;2023-11-22T07:34:47;4.32;;;3.10;;
26082;SDS011;13848;49.018;12.078;2023-11-22T07:37:13;3.72;;;2.58;;
26082;SDS011;13848;49.018;12.078;2023-11-22T07:39:39;3.70;;;2.92;;
26082;SDS011;13848;49.018;12.078;2023-11-22T07:42:05;5.68;;;2.80;;
26082;SDS011;13848;49.018;12.078;2023-11-22T07:44:31;4.28;;;3.10;;
26082;SDS011;13848;49.018;12.078;2023-11-22T07:46:57;3.80;;;2.90;;
26082;SDS011;13848;49.018;12.078;2023-11-22T07:49:24;5.15;;;3.15;;
26082;SDS011;13848;49.018;12.078;2023-11-22T07:51:50;4.32;;;2.90;;
26082;SDS011;13848;49.018;12.078;2023-11-22T07:54:16;4.10;;;2.95;;
26082;SDS011;13848;49.018;12.078;2023-11-22T07:56:42;4.00;;;2.78;;
26082;SDS011;13848;49.018;12.078;2023-11-22T07:59:08;4.57;;;3.17;;
26082;SDS011;13848;49.018;12.078;2023-11-22T08:01:34;4.65;;;3.28;;
26082;SDS011;13848;49.018;12.078;2023-11-22T08:04:00;5.07;;;3.25;;
26082;SDS011;13848;49.018;12.078;2023-11-22T08:06:27;5.97;;;3.83;;
26082;SDS011;13848;49.018;12.078;2023-11-22T08:08:53;4.15;;;3.35;;
26082;SDS011;13848;49.018;12.078;2023-11-22T08:11:19;5.68;;;3.85;;
26082;SDS011;13848;49.018;12.078;2023-11-22T08:13:45;5.15;;;3.35;;
26082;SDS011;13848;49.018;12.078;2023-11-22T08:16:11;7.43;;;4.35;;
26082;SDS011;13848;49.018;12.078;2023-11-22T08:18:37;7.47;;;4.38;;
26082;SDS011;13848;49.018;12.078;2023-11-22T08:21:03;5.35;;;3.70;;
26082;SDS011;13848;49.018;12.078;2023-11-22T08:23:30;6.40;;;3.65;;
26082;SDS011;13848;49.018;12.078;2023-11-22T08:25:56;8.00;;;4.00;;
26082;SDS011;13848;49.018;12.078;2023-11-22T08:28:22;11.88;;;4.43;;
26082;SDS011;13848;49.018;12.078;2023-11-22T08:30:48;7.20;;;4.65;;
26082;SDS011;13848;49.018;12.078;2023-11-22T08:33:14;4.93;;;3.47;;
26082;SDS011;13848;49.018;12.078;2023-11-22T08:35:40;6.07;;;3.83;;
26082;SDS011;13848;49.018;12.078;2023-11-22T08:38:06;4.95;;;3.80;;
26082;SDS011;13848;49.018;12.078;2023-11-22T08:40:33;6.50;;;4.35;;
26082;SDS011;13848;49.018;12.078;2023-11-22T08:43:00;6.40;;;4.07;;
26082;SDS011;13848;49.018;12.078;2023-11-22T08:45:26;9.18;;;4.72;;
26082;SDS011;13848;49.018;12.078;2023-11-22T08:47:52;6.10;;;4.20;;
26082;SDS011;13848;49.018;12.078;2023-11-22T08:50:18;6.15;;;4.20;;
26082;SDS011;13848;49.018;12.078;2023-11-22T08:52:43;7.13;;;4.22;;
26082;SDS011;13848;49.018;12.078;2023-11-22T08:55:09;6.47;;;4.53;;
26082;SDS011;13848;49.018;12.078;2023-11-22T08:57:37;8.48;;;4.95;;
26082;SDS011;13848;49.018;12.078;2023-11-22T09:00:03;7.45;;;4.43;;
26082;SDS011;13848;49.018;12.078;2023-11-22T09:02:30;7.55;;;4.65;;
26082;SDS011;13848;49.018;12.078;2023-11-22T09:04:56;6.28;;;4.25;;
26082;SDS011;13848;49.018;12.078;2023-11-22T09:07:22;8.82;;;4.00;;
26082;SDS011;13848;49.018;12.078;2023-11-22T09:09:48;6.93;;;4.60;;
26082;SDS011;13848;49.018;12.078;2023-11-22T09:12:14;8.80;;;4.97;;
26082;SDS011;13848;49.018;12.078;2023-11-22T09:14:41;6.95;;;4.40;;
26082;SDS011;13848;49.018;12.078;2023-11-22T09:17:07;6.18;;;4.15;;
26082;SDS011;13848;49.018;12.078;2023-11-22T09:19:33;8.75;;;5.18;;
26082;SDS011;13848;49.018;12.078;2023-11-22T09:21:59;8.23;;;4.50;;
26082;SDS011;13848;49.018;12.078;2023-11-22T09:24:25;6.20;;;3.85;;
26082;SDS011;13848;49.018;12.078;2023-11-22T09:26:51;6.45;;;4.22;;
26082;SDS011;13848;49.018;12.078;2023-11-22T09:29:17;8.65;;;4.65;;
26082;SDS011;13848;49.018;12.078;2023-11-22T09:31:44;8.57;;;4.47;;
26082;SDS011;13848;49.018;12.078;2023-11-22T09:34:10;10.15;;;4.80;;
26082;SDS011;13848;49.018;12.078;2023-11-22T09:36:36;7.90;;;4.45;;
26082;SDS011;13848;49.018;12.078;2023-11-22T09:39:03;8.13;;;4.60;;
26082;SDS011;13848;49.018;12.078;2023-11-22T09:41:29;7.90;;;4.50;;
26082;SDS011;13848;49.018;12.078;2023-11-22T09:43:55;8.05;;;4.50;;
26082;SDS011;13848;49.018;12.078;2023-11-22T09:46:27;8.80;;;4.72;;
26082;SDS011;13848;49.018;12.078;2023-11-22T09:48:55;10.90;;;6.35;;
26082;SDS011;13848;49.018;12.078;2023-11-22T09:51:23;9.77;;;5.40;;
26082;SDS011;13848;49.018;12.078;2023-11-22T09:53:52;8.55;;;5.15;;
26082;SDS011;13848;49.018;12.078;2023-11-22T09:56:20;8.27;;;5.00;;
26082;SDS011;13848;49.018;12.078;2023-11-22T09:58:46;7.13;;;4.25;;
26082;SDS011;13848;49.018;12.078;2023-11-22T10:01:16;9.15;;;5.07;;
26082;SDS011;13848;49.018;12.078;2023-11-22T10:03:42;6.43;;;4.43;;
26082;SDS011;13848;49.018;12.078;2023-11-22T10:06:10;6.47;;;4.13;;
26082;SDS011;13848;49.018;12.078;2023-11-22T10:08:36;7.93;;;4.85;;
26082;SDS011;13848;49.018;12.078;2023-11-22T10:11:02;5.82;;;3.95;;
26082;SDS011;13848;49.018;12.078;2023-11-22T10:13:29;6.55;;;4.50;;
26082;SDS011;13848;49.018;12.078;2023-11-22T10:15:55;5.63;;;4.10;;
26082;SDS011;13848;49.018;12.078;2023-11-22T10:18:21;5.70;;;4.05;;
26082;SDS011;13848;49.018;12.078;2023-11-22T10:20:48;6.13;;;4.20;;
26082;SDS011;13848;49.018;12.078;2023-11-22T10:23:17;6.80;;;4.20;;
26082;SDS011;13848;49.018;12.078;2023-11-22T10:25:44;5.82;;;3.95;;
26082;SDS011;13848;49.018;12.078;2023-11-22T10:28:11;5.28;;;3.60;;
26082;SDS011;13848;49.018;12.078;2023-11-22T10:30:37;6.88;;;4.18;;
26082;SDS011;13848;49.018;12.078;2023-11-22T10:33:03;5.85;;;3.65;;
26082;SDS011;13848;49.018;12.078;2023-11-22T10:35:29;5.28;;;3.60;;
26082;SDS011;13848;49.018;12.078;2023-11-22T10:37:55;5.82;;;3.70;;
26082;SDS011;13848;49.018;12.078;2023-11-22T10:40:22;4.60;;;3.40;;
26082;SDS011;13848;49.018;12.078;2023-11-22T10:42:48;5.45;;;3.67;;
26082;SDS011;13848;49.018;12.078;2023-11-22T10:45:16;5.82;;;3.75;;
26082;SDS011;13848;49.018;12.078;2023-11-22T10:47:43;4.78;;;3.47;;
26082;SDS011;13848;49.018;12.078;2023-11-22T10:50:09;4.55;;;3.50;;
26082;SDS011;13848;49.018;12.078;2023-11-22T10:52:35;5.35;;;3.90;;
26082;SDS011;13848;49.018;12.078;2023-11-22T10:55:02;6.97;;;3.80;;
26082;SDS011;13848;49.018;12.078;2023-11-22T10:57:31;7.60;;;3.60;;
26082;SDS011;13848;49.018;12.078;2023-11-22T10:59:59;4.85;;;3.13;;
26082;SDS011;13848;49.018;12.078;2023-11-22T11:02:28;5.38;;;3.70;;
26082;SDS011;13848;49.018;12.078;2023-11-22T11:04:59;5.60;;;3.42;;
26082;SDS011;13848;49.018;12.078;2023-11-22T11:07:31;4.13;;;3.28;;
26082;SDS011;13848;49.018;12.078;2023-11-22T11:10:01;5.13;;;3.72;;
26082;SDS011;13848;49.018;12.078;2023-11-22T11:12:27;6.88;;;3.65;;
26082;SDS011;13848;49.018;12.078;2023-11-22T11:14:55;5.28;;;3.40;;
26082;SDS011;13848;49.018;12.078;2023-11-22T11:17:21;7.28;;;3.60;;
26082;SDS011;13848;49.018;12.078;2023-11-22T11:19:47;4.22;;;3.28;;
26082;SDS011;13848;49.018;12.078;2023-11-22T11:22:13;5.28;;;3.88;;
26082;SDS011;13848;49.018;12.078;2023-11-22T11:24:39;6.00;;;3.55;;
26082;SDS011;13848;49.018;12.078;2023-11-22T11:27:06;5.80;;;4.20;;
26082;SDS011;13848;49.018;12.078;2023-11-22T11:29:35;4.82;;;3.65;;
26082;SDS011;13848;49.018;12.078;2023-11-22T11:32:03;6.38;;;4.40;;
26082;SDS011;13848;49.018;12.078;2023-11-22T11:34:30;5.65;;;3.85;;
26082;SDS011;13848;49.018;12.078;2023-11-22T11:36:56;5.85;;;3.65;;
26082;SDS011;13848;49.018;12.078;2023-11-22T11:39:24;5.03;;;3.85;;
26082;SDS011;13848;49.018;12.078;2023-11-22T11:41:51;5.95;;;3.90;;
26082;SDS011;13848;49.018;12.078;2023-11-22T11:44:17;4.88;;;3.58;;
26082;SDS011;13848;49.018;12.078;2023-11-22T11:46:43;5.90;;;3.85;;
26082;SDS011;13848;49.018;12.078;2023-11-22T11:49:12;6.45;;;4.03;;
26082;SDS011;13848;49.018;12.078;2023-11-22T11:51:38;5.90;;;4.00;;
26082;SDS011;13848;49.018;12.078;2023-11-22T11:54:04;7.43;;;4.70;;
26082;SDS011;13848;49.018;12.078;2023-11-22T11:56:30;6.80;;;3.75;;
26082;SDS011;13848;49.018;12.078;2023-11-22T11:58:58;7.97;;;3.75;;
26082;SDS011;13848;49.018;12.078;2023-11-22T12:01:24;5.78;;;3.72;;
26082;SDS011;13848;49.018;12.078;2023-11-22T12:03:53;5.07;;;3.85;;
26082;SDS011;13848;49.018;12.078;2023-11-22T12:06:20;8.20;;;3.92;;
26082;SDS011;13848;49.018;12.078;2023-11-22T12:08:46;5.20;;;3.75;;
26082;SDS011;13848;49.018;12.078;2023-11-22T12:11:12;6.05;;;4.25;;
26082;SDS011;13848;49.018;12.078;2023-11-22T12:13:39;5.95;;;3.78;;
26082;SDS011;13848;49.018;12.078;2023-11-22T12:16:05;5.22;;;3.78;;
26082;SDS011;13848;49.018;12.078;2023-11-22T12:18:38;6.25;;;4.28;;
26082;SDS011;13848;49.018;12.078;2023-11-22T12:21:05;6.10;;;4.10;;
26082;SDS011;13848;49.018;12.078;2023-11-22T12:23:32;6.07;;;4.18;;
26082;SDS011;13848;49.018;12.078;2023-11-22T12:26:00;7.00;;;4.18;;
26082;SDS011;13848;49.018;12.078;2023-11-22T12:28:27;5.85;;;3.80;;
26082;SDS011;13848;49.018;12.078;2023-11-22T12:30:55;6.10;;;4.25;;
26082;SDS011;13848;49.018;12.078;2023-11-22T12:33:31;6.95;;;3.95;;
26082;SDS011;13848;49.018;12.078;2023-11-22T12:35:57;6.70;;;4.32;;
26082;SDS011;13848;49.018;12.078;2023-11-22T12:38:23;6.30;;;4.00;;
26082;SDS011;13848;49.018;12.078;2023-11-22T12:40:51;6.15;;;4.35;;
26082;SDS011;13848;49.018;12.078;2023-11-22T12:43:17;6.93;;;4.50;;
26082;SDS011;13848;49.018;12.078;2023-11-22T12:45:43;7.38;;;4.70;;
26082;SDS011;13848;49.018;12.078;2023-11-22T12:48:21;6.38;;;4.30;;
26082;SDS011;13848;49.018;12.078;2023-11-22T12:50:48;5.60;;;4.10;;
26082;SDS011;13848;49.018;12.078;2023-11-22T12:53:14;6.80;;;4.63;;
26082;SDS011;13848;49.018;12.078;2023-11-22T12:55:41;7.38;;;4.60;;
26082;SDS011;13848;49.018;12.078;2023-11-22T12:58:09;7.45;;;4.85;;
26082;SDS011;13848;49.018;12.078;2023-11-22T13:00:36;6.45;;;4.40;;
26082;SDS011;13848;49.018;12.078;2023-11-22T13:03:02;6.43;;;4.25;;
26082;SDS011;13848;49.018;12.078;2023-11-22T13:05:28;8.60;;;4.80;;
26082;SDS011;13848;49.018;12.078;2023-11-22T13:07:54;8.07;;;4.32;;
26082;SDS011;13848;49.018;12.078;2023-11-22T13:10:19;6.43;;;4.70;;
26082;SDS011;13848;49.018;12.078;2023-11-22T13:12:45;7.07;;;4.88;;
26082;SDS011;13848;49.018;12.078;2023-11-22T13:15:13;8.23;;;5.00;;
26082;SDS011;13848;49.018;12.078;2023-11-22T13:17:39;7.53;;;4.70;;
26082;SDS011;13848;49.018;12.078;2023-11-22T13:20:06;6.93;;;4.63;;
26082;SDS011;13848;49.018;12.078;2023-11-22T13:22:32;10.00;;;6.93;;
26082;SDS011;13848;49.018;12.078;2023-11-22T13:24:58;5.75;;;4.38;;
26082;SDS011;13848;49.018;12.078;2023-11-22T13:27:24;8.70;;;5.10;;
26082;SDS011;13848;49.018;12.078;2023-11-22T13:29:50;7.57;;;5.07;;
26082;SDS011;13848;49.018;12.078;2023-11-22T13:32:17;7.43;;;4.45;;
26082;SDS011;13848;49.018;12.078;2023-11-22T13:34:43;10.05;;;5.38;;
26082;SDS011;13848;49.018;12.078;2023-11-22T13:37:09;8.15;;;5.82;;
26082;SDS011;13848;49.018;12.078;2023-11-22T13:39:35;8.52;;;5.90;;
26082;SDS011;13848;49.018;12.078;2023-11-22T13:42:01;8.43;;;5.35;;
26082;SDS011;13848;49.018;12.078;2023-11-22T13:44:27;10.23;;;5.53;;
26082;SDS011;13848;49.018;12.078;2023-11-22T13:46:53;8.55;;;5.45;;
26082;SDS011;13848;49.018;12.078;2023-11-22T13:49:20;9.32;;;5.65;;
26082;SDS011;13848;49.018;12.078;2023-11-22T13:51:49;7.82;;;4.95;;
26082;SDS011;13848;49.018;12.078;2023-11-22T13:54:15;9.15;;;5.60;;
26082;SDS011;13848;49.018;12.078;2023-11-22T13:56:41;9.02;;;5.57;;
26082;SDS011;13848;49.018;12.078;2023-11-22T13:59:07;7.93;;;5.82;;
26082;SDS011;13848;49.018;12.078;2023-11-22T14:01:33;8.88;;;5.68;;
26082;SDS011;13848;49.018;12.078;2023-11-22T14:03:59;8.00;;;5.47;;
26082;SDS011;13848;49.018;12.078;2023-11-22T14:06:26;9.32;;;5.47;;
26082;SDS011;13848;49.018;12.078;2023-11-22T14:08:52;7.80;;;5.25;;
26082;SDS011;13848;49.018;12.078;2023-11-22T14:11:18;7.50;;;5.22;;
26082;SDS011;13848;49.018;12.078;2023-11-22T14:13:44;8.82;;;5.90;;
26082;SDS011;13848;49.018;12.078;2023-11-22T14:16:10;8.15;;;5.35;;
26082;SDS011;13848;49.018;12.078;2023-11-22T14:18:36;7.93;;;5.22;;
26082;SDS011;13848;49.018;12.078;2023-11-22T14:21:02;8.52;;;5.50;;
26082;SDS011;13848;49.018;12.078;2023-11-22T14:23:29;8.18;;;5.40;;
26082;SDS011;13848;49.018;12.078;2023-11-22T14:25:55;8.63;;;5.20;;
26082;SDS011;13848;49.018;12.078;2023-11-22T14:28:21;8.43;;;5.45;;